createdAt,value
2024-02-17T00:00:06.727Z,15.63
2024-02-17T00:02:34.075Z,13.77
2024-02-17T00:05:00.913Z,14.18
2024-02-17T00:07:27.608Z,14.68
2024-02-17T00:09:54.315Z,16.15
2024-02-17T00:12:21.059Z,14.50
2024-02-17T00:14:47.855Z,15.25
2024-02-17T00:17:15.317Z,14.52
2024-02-17T00:19:42.432Z,15.40
2024-02-17T00:22:09.471Z,13.82
2024-02-17T00:24:36.194Z,15.70
2024-02-17T00:27:03.708Z,15.15
2024-02-17T00:29:30.566Z,16.65
2024-02-17T00:31:57.442Z,15.73
2024-02-17T00:34:24.978Z,15.95
2024-02-17T00:36:52.351Z,16.27
2024-02-17T00:39:19.277Z,16.05
2024-02-17T00:41:47.012Z,15.57
2024-02-17T00:44:14.208Z,15.45
2024-02-17T00:46:41.348Z,15.98
2024-02-17T00:49:10.551Z,15.35
2024-02-17T00:51:37.637Z,15.68
2024-02-17T00:54:04.443Z,16.17
2024-02-17T00:56:31.101Z,15.90
2024-02-17T00:58:57.647Z,15.35
2024-02-17T01:01:32.875Z,15.15
2024-02-17T01:04:05.604Z,14.73
2024-02-17T01:06:32.491Z,15.43
2024-02-17T01:08:59.199Z,15.40
2024-02-17T01:11:25.906Z,15.15
2024-02-17T01:13:52.646Z,14.77
2024-02-17T01:16:19.731Z,14.82
2024-02-17T01:18:46.509Z,15.80
2024-02-17T01:21:13.823Z,15.18
2024-02-17T01:23:41.103Z,14.15
2024-02-17T01:26:08.169Z,14.93
2024-02-17T01:28:34.922Z,15.65
2024-02-17T01:31:01.543Z,15.50
2024-02-17T01:33:28.254Z,15.18
2024-02-17T01:35:55.327Z,14.77
2024-02-17T01:38:22.237Z,14.88
2024-02-17T01:40:48.867Z,16.10
2024-02-17T01:43:15.946Z,16.90
2024-02-17T01:45:42.549Z,16.67
2024-02-17T01:48:10.146Z,15.90
2024-02-17T01:50:37.082Z,15.15
2024-02-17T01:53:04.016Z,13.75
2024-02-17T01:55:31.460Z,13.68
2024-02-17T01:57:59.263Z,15.63
2024-02-17T02:00:26.195Z,13.82
2024-02-17T02:02:55.011Z,14.43
2024-02-17T02:05:22.571Z,14.68
2024-02-17T02:07:49.336Z,15.00
2024-02-17T02:10:16.285Z,15.50
2024-02-17T02:12:42.990Z,14.57
2024-02-17T02:15:12.268Z,14.57
2024-02-17T02:17:40.337Z,14.45
2024-02-17T02:20:07.657Z,15.02
2024-02-17T02:22:34.756Z,14.55
2024-02-17T02:25:02.150Z,15.27
2024-02-17T02:27:28.992Z,14.43
2024-02-17T02:29:57.283Z,14.70
2024-02-17T02:32:27.605Z,15.27
2024-02-17T02:34:55.636Z,15.07
2024-02-17T02:37:28.392Z,14.50
2024-02-17T02:39:55.071Z,15.88
2024-02-17T02:42:21.703Z,15.40
2024-02-17T02:44:48.356Z,14.95
2024-02-17T02:47:18.080Z,14.80
2024-02-17T02:49:46.298Z,15.68
2024-02-17T02:52:14.541Z,14.52
2024-02-17T02:54:41.299Z,15.10
2024-02-17T02:57:07.947Z,15.35
2024-02-17T02:59:34.679Z,15.68
2024-02-17T03:02:04.858Z,15.10
2024-02-17T03:04:31.732Z,15.40
2024-02-17T03:06:58.712Z,15.85
2024-02-17T03:09:25.406Z,16.13
2024-02-17T03:11:52.034Z,15.65
2024-02-17T03:14:18.933Z,16.38
2024-02-17T03:16:45.816Z,17.08
2024-02-17T03:19:12.612Z,16.52
2024-02-17T03:21:41.631Z,17.05
2024-02-17T03:24:09.167Z,16.75
2024-02-17T03:26:37.613Z,16.13
2024-02-17T03:29:04.758Z,16.30
2024-02-17T03:31:31.390Z,16.33
2024-02-17T03:34:00.690Z,16.50
2024-02-17T03:36:28.027Z,16.13
2024-02-17T03:38:54.919Z,15.52
2024-02-17T03:41:21.534Z,15.38
2024-02-17T03:43:48.286Z,15.75
2024-02-17T03:46:14.868Z,16.88
2024-02-17T03:48:41.794Z,16.00
2024-02-17T03:51:09.025Z,15.38
2024-02-17T03:53:36.838Z,16.38
2024-02-17T03:56:04.837Z,16.85
2024-02-17T03:58:31.434Z,16.10
2024-02-17T04:00:58.141Z,16.98
2024-02-17T04:03:25.094Z,16.30
2024-02-17T04:05:51.942Z,16.13
2024-02-17T04:08:18.744Z,15.55
2024-02-17T04:10:45.992Z,16.15
2024-02-17T04:13:12.856Z,16.02
2024-02-17T04:15:40.569Z,15.02
2024-02-17T04:18:11.263Z,15.13
2024-02-17T04:20:39.138Z,14.55
2024-02-17T04:23:07.047Z,14.85
2024-02-17T04:25:34.214Z,14.43
2024-02-17T04:28:03.417Z,14.57
2024-02-17T04:30:30.134Z,14.70
2024-02-17T04:32:56.915Z,14.73
2024-02-17T04:35:23.872Z,14.65
2024-02-17T04:37:50.640Z,14.88
2024-02-17T04:40:17.326Z,14.57
2024-02-17T04:42:45.545Z,14.13
2024-02-17T04:45:12.219Z,13.85
2024-02-17T04:47:39.637Z,14.55
2024-02-17T04:50:06.508Z,15.07
2024-02-17T04:52:33.200Z,14.48
2024-02-17T04:54:59.855Z,14.75
2024-02-17T04:57:26.549Z,14.98
2024-02-17T04:59:53.304Z,14.27
2024-02-17T05:02:19.933Z,14.23
2024-02-17T05:04:46.626Z,14.63
2024-02-17T05:07:13.315Z,14.48
2024-02-17T05:09:40.093Z,15.00
2024-02-17T05:12:06.909Z,14.30
2024-02-17T05:14:37.590Z,14.15
2024-02-17T05:17:05.228Z,15.40
2024-02-17T05:19:32.349Z,15.10
2024-02-17T05:21:59.951Z,14.65
2024-02-17T05:24:26.826Z,15.55
2024-02-17T05:26:53.878Z,14.35
2024-02-17T05:29:20.432Z,14.38
2024-02-17T05:31:47.056Z,15.18
2024-02-17T05:34:13.978Z,13.82
2024-02-17T05:36:41.128Z,14.25
2024-02-17T05:39:08.985Z,14.80
2024-02-17T05:41:36.000Z,13.63
2024-02-17T05:44:02.837Z,14.02
2024-02-17T05:46:29.435Z,15.30
2024-02-17T05:48:56.201Z,14.23
2024-02-17T05:51:22.885Z,14.18
2024-02-17T05:53:49.637Z,13.60
2024-02-17T05:56:16.327Z,14.48
2024-02-17T05:58:43.918Z,14.00
2024-02-17T06:01:11.249Z,14.57
2024-02-17T06:03:38.058Z,14.65
2024-02-17T06:06:05.353Z,14.18
2024-02-17T06:08:34.463Z,14.85
2024-02-17T06:11:01.635Z,14.02
2024-02-17T06:13:30.042Z,14.77
2024-02-17T06:15:57.144Z,14.13
2024-02-17T06:18:42.486Z,14.68
2024-02-17T06:21:12.385Z,15.05
2024-02-17T06:23:39.177Z,14.93
2024-02-17T06:26:06.569Z,13.93
2024-02-17T06:28:33.519Z,14.27
2024-02-17T06:31:00.398Z,14.77
2024-02-17T06:33:32.438Z,14.48
2024-02-17T06:35:59.285Z,14.02
2024-02-17T06:38:25.908Z,13.88
2024-02-17T06:40:52.882Z,13.68
2024-02-17T06:43:19.448Z,14.27
2024-02-17T06:45:46.442Z,13.65
2024-02-17T06:48:13.345Z,13.93
2024-02-17T06:50:40.227Z,13.85
2024-02-17T06:53:06.983Z,14.98
2024-02-17T06:55:34.064Z,14.38
2024-02-17T06:58:00.662Z,14.93
2024-02-17T07:00:27.340Z,14.20
2024-02-17T07:02:54.000Z,14.23
2024-02-17T07:05:20.590Z,13.93
2024-02-17T07:07:47.404Z,14.13
2024-02-17T07:10:14.040Z,15.15
2024-02-17T07:12:41.190Z,14.75
2024-02-17T07:15:08.574Z,14.57
2024-02-17T07:17:35.344Z,14.77
2024-02-17T07:20:02.319Z,13.80
2024-02-17T07:22:29.809Z,13.75
2024-02-17T07:24:56.405Z,14.20
2024-02-17T07:27:24.188Z,14.02
2024-02-17T07:29:51.174Z,13.77
2024-02-17T07:32:20.076Z,13.88
2024-02-17T07:34:47.278Z,14.20
2024-02-17T07:37:14.097Z,13.90
2024-02-17T07:39:41.915Z,13.93
2024-02-17T07:42:10.043Z,13.40
2024-02-17T07:44:37.354Z,14.50
2024-02-17T07:47:04.911Z,14.27
2024-02-17T07:49:33.487Z,14.07
2024-02-17T07:52:00.669Z,14.02
2024-02-17T07:54:27.420Z,14.02
2024-02-17T07:56:54.106Z,13.63
2024-02-17T07:59:20.767Z,14.57
2024-02-17T08:01:47.543Z,13.93
2024-02-17T08:04:14.961Z,13.80
2024-02-17T08:06:41.916Z,13.52
2024-02-17T08:09:09.027Z,13.80
2024-02-17T08:11:36.651Z,14.43
2024-02-17T08:14:05.780Z,13.75
2024-02-17T08:16:33.267Z,13.98
2024-02-17T08:19:00.206Z,14.48
2024-02-17T08:21:27.035Z,13.98
2024-02-17T08:23:53.756Z,13.85
2024-02-17T08:26:21.248Z,13.38
2024-02-17T08:28:47.890Z,14.30
2024-02-17T08:31:14.837Z,14.43
2024-02-17T08:33:41.625Z,13.05
2024-02-17T08:36:08.914Z,14.85
2024-02-17T08:38:35.599Z,12.93
2024-02-17T08:41:05.073Z,14.40
2024-02-17T08:43:31.662Z,14.65
2024-02-17T08:45:58.550Z,13.57
2024-02-17T08:48:25.665Z,13.32
2024-02-17T08:50:52.830Z,13.45
2024-02-17T08:53:20.051Z,14.30
2024-02-17T08:55:46.690Z,13.45
2024-02-17T08:58:13.784Z,13.63
2024-02-17T09:00:40.597Z,12.93
2024-02-17T09:03:07.722Z,13.48
2024-02-17T09:05:38.002Z,12.52
2024-02-17T09:08:04.947Z,12.95
2024-02-17T09:10:31.542Z,13.15
2024-02-17T09:12:58.242Z,13.23
2024-02-17T09:15:25.002Z,13.63
2024-02-17T09:17:51.739Z,13.48
2024-02-17T09:20:18.503Z,14.20
2024-02-17T09:22:45.718Z,14.15
2024-02-17T09:25:12.324Z,12.85
2024-02-17T09:27:39.099Z,13.45
2024-02-17T09:30:07.215Z,13.93
2024-02-17T09:32:33.839Z,13.05
2024-02-17T09:35:00.702Z,14.57
2024-02-17T09:37:27.499Z,14.68
2024-02-17T09:39:54.147Z,14.13
2024-02-17T09:42:21.122Z,14.07
2024-02-17T09:44:49.176Z,13.30
2024-02-17T09:47:17.074Z,13.65
2024-02-17T09:49:45.652Z,14.68
2024-02-17T09:52:12.825Z,14.80
2024-02-17T09:54:40.406Z,14.25
2024-02-17T09:57:07.801Z,14.15
2024-02-17T09:59:34.473Z,13.65
2024-02-17T10:02:03.763Z,14.02
2024-02-17T10:04:31.384Z,13.55
2024-02-17T10:07:02.329Z,13.02
2024-02-17T10:09:31.095Z,13.90
2024-02-17T10:11:59.865Z,13.70
2024-02-17T10:14:28.563Z,13.10
2024-02-17T10:17:00.051Z,12.80
2024-02-17T10:19:27.111Z,14.25
2024-02-17T10:21:55.252Z,13.20
2024-02-17T10:24:22.943Z,13.00
2024-02-17T10:26:56.145Z,13.10
2024-02-17T10:29:25.045Z,12.55
2024-02-17T10:31:52.227Z,11.23
2024-02-17T10:34:19.315Z,12.10
2024-02-17T10:36:46.567Z,14.25
2024-02-17T10:39:13.214Z,11.60
2024-02-17T10:41:40.376Z,11.60
2024-02-17T10:44:07.146Z,12.40
2024-02-17T10:46:36.099Z,11.70
2024-02-17T10:49:17.239Z,10.57
2024-02-17T10:51:57.145Z,11.88
2024-02-17T10:54:33.341Z,11.07
2024-02-17T10:57:04.965Z,11.43
2024-02-17T10:59:33.700Z,12.68
2024-02-17T11:02:00.720Z,12.00
2024-02-17T11:04:28.106Z,11.43
2024-02-17T11:06:57.085Z,11.25
2024-02-17T11:09:24.632Z,11.27
2024-02-17T11:11:51.466Z,11.00
2024-02-17T11:14:42.504Z,11.73
2024-02-17T11:17:12.981Z,11.65
2024-02-17T11:19:43.642Z,12.00
2024-02-17T11:22:11.203Z,12.13
2024-02-17T11:24:39.152Z,11.13
2024-02-17T11:27:06.348Z,10.65
2024-02-17T11:29:35.487Z,10.52
2024-02-17T11:32:03.714Z,11.25
2024-02-17T11:34:30.539Z,11.27
2024-02-17T11:37:00.427Z,11.00
2024-02-17T11:39:27.512Z,10.13
2024-02-17T11:41:54.462Z,11.15
2024-02-17T11:44:22.132Z,10.43
2024-02-17T11:46:49.165Z,10.30
2024-02-17T11:49:44.649Z,11.13
2024-02-17T11:52:11.538Z,11.02
2024-02-17T11:54:38.989Z,11.23
2024-02-17T11:57:07.869Z,11.13
2024-02-17T11:59:36.948Z,11.05
2024-02-17T12:02:04.533Z,10.68
2024-02-17T12:04:32.574Z,11.38
2024-02-17T12:06:59.394Z,11.07
2024-02-17T12:09:26.065Z,11.00
2024-02-17T12:11:54.892Z,10.85
2024-02-17T12:14:24.621Z,11.15
2024-02-17T12:16:51.458Z,11.27
2024-02-17T12:19:18.262Z,11.00
2024-02-17T12:21:46.703Z,12.73
2024-02-17T12:24:14.082Z,11.18
2024-02-17T12:26:47.242Z,10.68
2024-02-17T12:29:15.318Z,11.30
2024-02-17T12:31:47.442Z,12.02
2024-02-17T12:34:31.735Z,11.02
2024-02-17T12:37:00.457Z,11.90
2024-02-17T12:39:27.490Z,10.98
2024-02-17T12:42:04.671Z,12.32
2024-02-17T12:44:32.145Z,11.52
2024-02-17T12:46:58.934Z,12.07
2024-02-17T12:49:26.303Z,12.40
2024-02-17T12:51:53.613Z,11.90
2024-02-17T12:54:20.607Z,12.45
2024-02-17T12:56:47.750Z,12.80
2024-02-17T12:59:15.065Z,12.90
2024-02-17T13:01:41.801Z,12.93
2024-02-17T13:04:08.551Z,14.68
2024-02-17T13:06:35.903Z,13.38
2024-02-17T13:09:02.864Z,14.00
2024-02-17T13:11:29.941Z,14.25
2024-02-17T13:13:57.720Z,13.90
2024-02-17T13:16:24.516Z,14.55
2024-02-17T13:18:51.299Z,14.95
2024-02-17T13:21:19.412Z,15.15
2024-02-17T13:23:46.250Z,14.27
2024-02-17T13:26:14.829Z,14.40
2024-02-17T13:28:43.009Z,14.40
2024-02-17T13:31:12.120Z,14.32
2024-02-17T13:33:39.383Z,14.75
2024-02-17T13:36:06.180Z,14.18
2024-02-17T13:38:32.795Z,13.75
2024-02-17T13:40:59.505Z,14.27
2024-02-17T13:43:26.088Z,13.45
2024-02-17T13:45:53.076Z,14.52
2024-02-17T13:48:20.153Z,14.80
2024-02-17T13:50:48.499Z,15.18
2024-02-17T13:53:15.620Z,14.80
2024-02-17T13:55:44.236Z,15.57
2024-02-17T13:58:11.562Z,15.45
2024-02-17T14:00:40.991Z,15.93
2024-02-17T14:03:08.635Z,14.82
2024-02-17T14:05:35.611Z,14.35
2024-02-17T14:08:02.186Z,13.90
2024-02-17T14:10:28.921Z,15.18
2024-02-17T14:13:00.059Z,14.55
2024-02-17T14:15:28.117Z,14.00
2024-02-17T14:17:54.963Z,15.02
2024-02-17T14:20:21.775Z,15.25
2024-02-17T14:22:51.476Z,15.57
2024-02-17T14:25:18.304Z,14.70
2024-02-17T14:27:46.213Z,14.68
2024-02-17T14:30:13.320Z,14.25
2024-02-17T14:32:40.810Z,14.27
2024-02-17T14:35:07.844Z,14.50
2024-02-17T14:37:34.596Z,13.40
2024-02-17T14:40:01.256Z,13.93
2024-02-17T14:42:28.501Z,12.82
2024-02-17T14:44:55.412Z,11.68
2024-02-17T14:47:22.012Z,12.77
2024-02-17T14:49:49.114Z,11.60
2024-02-17T14:52:17.124Z,11.10
2024-02-17T14:54:45.974Z,11.05
2024-02-17T14:57:14.159Z,11.80
2024-02-17T14:59:44.853Z,10.93
2024-02-17T15:02:11.535Z,11.45
2024-02-17T15:04:38.208Z,10.35
2024-02-17T15:07:05.138Z,11.50
2024-02-17T15:09:32.464Z,10.98
2024-02-17T15:12:00.132Z,11.77
2024-02-17T15:14:29.067Z,10.30
2024-02-17T15:16:56.115Z,9.50
2024-02-17T15:19:22.897Z,9.40
2024-02-17T15:21:49.649Z,9.50
2024-02-17T15:24:16.385Z,9.05
2024-02-17T15:26:46.039Z,9.52
2024-02-17T15:29:12.707Z,8.88
2024-02-17T15:31:40.854Z,8.88
2024-02-17T15:34:08.831Z,8.50
2024-02-17T15:36:37.902Z,8.23
2024-02-17T15:39:07.533Z,8.40
2024-02-17T15:41:35.285Z,8.63
2024-02-17T15:44:01.946Z,9.00
2024-02-17T15:46:28.739Z,8.60
2024-02-17T15:48:56.081Z,9.18
2024-02-17T15:51:22.859Z,9.45
2024-02-17T15:53:52.996Z,8.82
2024-02-17T15:56:19.576Z,9.20
2024-02-17T15:58:49.300Z,8.90
2024-02-17T16:01:18.003Z,9.52
2024-02-17T16:03:45.692Z,8.73
2024-02-17T16:06:12.761Z,9.10
2024-02-17T16:08:42.251Z,10.20
2024-02-17T16:11:15.104Z,9.27
2024-02-17T16:13:45.788Z,9.88
2024-02-17T16:16:15.950Z,9.93
2024-02-17T16:18:46.778Z,9.88
2024-02-17T16:21:13.763Z,10.20
2024-02-17T16:23:40.941Z,11.02
2024-02-17T16:26:07.558Z,11.27
2024-02-17T16:28:34.305Z,10.65
2024-02-17T16:31:01.043Z,10.73
2024-02-17T16:33:27.885Z,10.43
2024-02-17T16:35:54.665Z,10.52
2024-02-17T16:38:21.494Z,10.88
2024-02-17T16:40:49.804Z,9.68
2024-02-17T16:43:17.667Z,10.75
2024-02-17T16:45:47.293Z,10.57
2024-02-17T16:48:14.558Z,10.50
2024-02-17T16:50:41.301Z,11.77
2024-02-17T16:53:07.968Z,11.57
2024-02-17T16:55:34.792Z,11.43
2024-02-17T16:58:01.669Z,11.45
2024-02-17T17:00:28.400Z,10.80
2024-02-17T17:02:55.326Z,10.98
2024-02-17T17:05:22.071Z,11.30
2024-02-17T17:07:48.857Z,11.15
2024-02-17T17:10:15.491Z,10.10
2024-02-17T17:12:42.372Z,10.85
2024-02-17T17:15:10.312Z,12.13
2024-02-17T17:17:37.727Z,11.13
2024-02-17T17:20:05.404Z,10.85
2024-02-17T17:22:42.710Z,10.80
2024-02-17T17:25:14.543Z,10.93
2024-02-17T17:27:41.557Z,11.18
2024-02-17T17:30:12.122Z,12.30
2024-02-17T17:32:41.115Z,12.18
2024-02-17T17:35:08.920Z,13.30
2024-02-17T17:37:36.318Z,13.10
2024-02-17T17:40:03.677Z,14.63
2024-02-17T17:42:30.858Z,14.98
2024-02-17T17:44:57.675Z,14.15
2024-02-17T17:47:24.392Z,14.40
2024-02-17T17:49:51.259Z,13.48
2024-02-17T17:52:18.190Z,14.40
2024-02-17T17:54:49.755Z,14.68
2024-02-17T17:57:17.545Z,14.30
2024-02-17T17:59:45.204Z,13.35
2024-02-17T18:02:11.766Z,13.90
2024-02-17T18:04:38.712Z,15.15
2024-02-17T18:07:05.737Z,22.73
2024-02-17T18:09:32.492Z,30.15
2024-02-17T18:11:59.185Z,47.45
2024-02-17T18:14:25.827Z,34.70
2024-02-17T18:16:52.501Z,34.17
2024-02-17T18:19:20.133Z,37.40
2024-02-17T18:21:47.623Z,31.80
2024-02-17T18:24:14.333Z,27.58
2024-02-17T18:26:41.236Z,25.73
2024-02-17T18:29:07.911Z,21.38
2024-02-17T18:31:37.450Z,20.60
2024-02-17T18:34:05.098Z,19.23
2024-02-17T18:36:33.110Z,19.67
2024-02-17T18:39:00.060Z,17.27
2024-02-17T18:41:26.637Z,17.85
2024-02-17T18:43:53.261Z,17.70
2024-02-17T18:46:20.134Z,18.20
2024-02-17T18:48:46.800Z,17.48
2024-02-17T18:51:19.678Z,18.20
2024-02-17T18:53:46.704Z,17.23
2024-02-17T18:56:13.699Z,17.92
2024-02-17T18:58:47.934Z,17.63
2024-02-17T19:01:15.142Z,17.85
2024-02-17T19:03:49.182Z,17.95
2024-02-17T19:06:17.176Z,20.43
2024-02-17T19:08:46.709Z,20.40
2024-02-17T19:11:13.762Z,22.25
2024-02-17T19:13:40.994Z,23.27
2024-02-17T19:16:08.930Z,21.05
2024-02-17T19:18:36.527Z,23.20
2024-02-17T19:21:03.940Z,21.73
2024-02-17T19:23:30.594Z,20.55
2024-02-17T19:25:57.315Z,21.52
2024-02-17T19:28:23.916Z,21.40
2024-02-17T19:30:50.958Z,21.58
2024-02-17T19:33:19.288Z,20.50
2024-02-17T19:35:46.165Z,18.33
2024-02-17T19:38:12.841Z,18.92
2024-02-17T19:40:39.969Z,17.25
2024-02-17T19:43:06.680Z,17.15
2024-02-17T19:45:33.530Z,17.85
2024-02-17T19:48:00.428Z,21.63
2024-02-17T19:50:27.080Z,16.80
2024-02-17T19:52:53.862Z,23.95
2024-02-17T19:55:20.604Z,25.55
2024-02-17T19:57:52.772Z,18.60
2024-02-17T20:00:20.645Z,20.55
2024-02-17T20:02:48.069Z,25.77
2024-02-17T20:05:19.230Z,18.95
2024-02-17T20:07:46.038Z,16.20
2024-02-17T20:10:12.552Z,16.83
2024-02-17T20:12:40.034Z,15.80
2024-02-17T20:15:10.008Z,14.60
2024-02-17T20:17:44.883Z,16.25
2024-02-17T20:20:13.020Z,14.80
2024-02-17T20:22:40.226Z,14.18
2024-02-17T20:25:07.193Z,14.20
2024-02-17T20:27:33.956Z,14.30
2024-02-17T20:30:00.632Z,15.77
2024-02-17T20:32:27.333Z,18.58
2024-02-17T20:34:54.048Z,18.75
2024-02-17T20:37:20.704Z,19.13
2024-02-17T20:39:47.387Z,16.20
2024-02-17T20:42:14.033Z,13.25
2024-02-17T20:44:41.751Z,11.70
2024-02-17T20:47:08.768Z,13.80
2024-02-17T20:49:36.673Z,15.10
2024-02-17T20:52:03.519Z,13.38
2024-02-17T20:54:30.701Z,11.25
2024-02-17T20:56:57.429Z,13.02
2024-02-17T20:59:24.127Z,11.30
2024-02-17T21:01:50.914Z,10.70
2024-02-17T21:04:18.121Z,10.30
2024-02-17T21:06:45.126Z,8.50
2024-02-17T21:09:11.731Z,9.48
2024-02-17T21:11:38.447Z,14.23
2024-02-17T21:14:07.412Z,10.95
2024-02-17T21:16:34.079Z,10.93
2024-02-17T21:19:00.928Z,10.52
2024-02-17T21:21:28.732Z,10.05
2024-02-17T21:23:56.170Z,12.38
2024-02-17T21:26:22.832Z,11.73
2024-02-17T21:28:49.498Z,10.57
2024-02-17T21:31:16.323Z,12.48
2024-02-17T21:33:44.179Z,12.63
2024-02-17T21:36:13.976Z,13.70
2024-02-17T21:38:41.296Z,14.43
2024-02-17T21:41:07.951Z,15.35
2024-02-17T21:43:35.723Z,16.70
2024-02-17T21:46:02.768Z,12.18
2024-02-17T21:48:30.091Z,11.45
2024-02-17T21:50:56.805Z,10.68
2024-02-17T21:53:23.558Z,8.98
2024-02-17T21:55:50.176Z,8.43
2024-02-17T21:58:17.306Z,8.15
2024-02-17T22:00:45.099Z,8.43
2024-02-17T22:03:11.946Z,8.68
2024-02-17T22:05:38.711Z,9.25
2024-02-17T22:08:06.751Z,10.15
2024-02-17T22:10:33.321Z,9.00
2024-02-17T22:12:59.934Z,9.73
2024-02-17T22:15:27.406Z,9.60
2024-02-17T22:17:54.149Z,9.60
2024-02-17T22:20:20.993Z,8.60
2024-02-17T22:22:47.663Z,8.70
2024-02-17T22:25:14.291Z,7.75
2024-02-17T22:27:42.464Z,6.70
2024-02-17T22:30:09.894Z,8.02
2024-02-17T22:32:37.717Z,7.53
2024-02-17T22:35:05.042Z,7.07
2024-02-17T22:37:32.337Z,7.28
2024-02-17T22:39:59.017Z,7.25
2024-02-17T22:42:25.681Z,7.35
2024-02-17T22:44:52.253Z,7.03
2024-02-17T22:47:19.008Z,7.50
2024-02-17T22:49:46.098Z,7.80
2024-02-17T22:52:12.821Z,7.45
2024-02-17T22:54:40.460Z,7.20
2024-02-17T22:57:07.839Z,6.90
2024-02-17T22:59:34.536Z,7.63
2024-02-17T23:02:01.223Z,7.15
2024-02-17T23:04:27.986Z,7.57
2024-02-17T23:06:54.635Z,7.20
2024-02-17T23:09:21.307Z,6.93
2024-02-17T23:11:47.999Z,7.97
2024-02-17T23:14:14.958Z,7.53
2024-02-17T23:16:44.968Z,7.45
2024-02-17T23:19:13.194Z,6.35
2024-02-17T23:21:45.736Z,6.60
2024-02-17T23:24:13.902Z,7.05
2024-02-17T23:26:41.397Z,5.93
2024-02-17T23:29:09.577Z,6.05
2024-02-17T23:31:36.676Z,6.10
2024-02-17T23:34:03.609Z,5.75
2024-02-17T23:36:30.477Z,6.32
2024-02-17T23:38:57.342Z,6.15
2024-02-17T23:41:23.965Z,6.68
2024-02-17T23:43:50.624Z,5.78
2024-02-17T23:46:17.346Z,5.63
2024-02-17T23:48:44.168Z,5.85
2024-02-17T23:51:11.648Z,5.70
2024-02-17T23:53:39.393Z,5.90
2024-02-17T23:56:06.854Z,5.97
2024-02-17T23:58:33.757Z,5.97
